createdAt,value
2023-05-19T00:00:17.243Z,88.17
2023-05-19T00:01:17.199Z,88.84
2023-05-19T00:02:17.185Z,88.64
2023-05-19T00:03:17.215Z,89.12
2023-05-19T00:04:17.134Z,89.03
2023-05-19T00:05:17.107Z,88.93
2023-05-19T00:06:17.142Z,89.03
2023-05-19T00:07:17.053Z,88.84
2023-05-19T00:08:17.034Z,88.84
2023-05-19T00:09:17.035Z,88.84
2023-05-19T00:10:16.989Z,89.36
2023-05-19T00:11:16.965Z,89.65
2023-05-19T00:12:16.954Z,89.89
2023-05-19T00:13:16.915Z,89.65
2023-05-19T00:14:16.907Z,89.84
2023-05-19T00:15:16.869Z,89.69
2023-05-19T00:16:16.855Z,89.84
2023-05-19T00:17:16.851Z,89.75
2023-05-19T00:18:16.796Z,89.60
2023-05-19T00:19:16.816Z,89.46
2023-05-19T00:20:16.748Z,89.50
2023-05-19T00:21:16.730Z,89.98
2023-05-19T00:22:16.708Z,89.79
2023-05-19T00:23:16.678Z,90.17
2023-05-19T00:24:16.656Z,90.12
2023-05-19T00:25:16.673Z,89.75
2023-05-19T00:26:16.610Z,89.75
2023-05-19T00:27:16.579Z,90.03
2023-05-19T00:28:16.564Z,90.41
2023-05-19T00:29:16.537Z,89.84
2023-05-19T00:30:16.532Z,90.41
2023-05-19T00:31:16.541Z,90.41
2023-05-19T00:32:16.562Z,91.08
2023-05-19T00:33:16.434Z,90.98
2023-05-19T00:34:16.417Z,91.08
2023-05-19T00:35:16.405Z,91.55
2023-05-19T00:36:16.377Z,91.94
2023-05-19T00:37:16.349Z,91.27
2023-05-19T00:38:16.324Z,92.03
2023-05-19T00:39:16.306Z,91.46
2023-05-19T00:40:16.282Z,91.46
2023-05-19T00:41:16.283Z,91.65
2023-05-19T00:42:16.236Z,91.74
2023-05-19T00:43:16.202Z,91.74
2023-05-19T00:44:16.182Z,92.03
2023-05-19T00:45:16.150Z,92.03
2023-05-19T00:46:16.182Z,92.32
2023-05-19T00:47:16.113Z,92.79
2023-05-19T00:48:16.080Z,92.50
2023-05-19T00:49:16.053Z,92.89
2023-05-19T00:50:16.037Z,92.32
2023-05-19T00:51:16.019Z,92.79
2023-05-19T00:52:15.984Z,92.60
2023-05-19T00:53:15.975Z,92.89
2023-05-19T00:54:15.942Z,92.41
2023-05-19T00:55:15.919Z,92.69
2023-05-19T00:56:15.917Z,93.17
2023-05-19T00:57:15.885Z,92.60
2023-05-19T00:58:15.850Z,93.17
2023-05-19T00:59:15.823Z,92.98
2023-05-19T01:00:15.794Z,93.65
2023-05-19T01:01:15.779Z,93.37
2023-05-19T01:02:15.754Z,93.27
2023-05-19T01:03:15.772Z,93.55
2023-05-19T01:04:15.704Z,93.37
2023-05-19T01:05:15.682Z,93.27
2023-05-19T01:06:15.710Z,93.93
2023-05-19T01:07:15.628Z,93.74
2023-05-19T01:08:15.616Z,93.93
2023-05-19T01:09:15.588Z,94.08
2023-05-19T01:10:15.583Z,94.08
2023-05-19T01:11:15.540Z,94.74
2023-05-19T01:12:15.544Z,94.84
2023-05-19T01:13:15.526Z,95.32
2023-05-19T01:14:15.476Z,95.41
2023-05-19T01:15:15.441Z,95.22
2023-05-19T01:16:15.427Z,95.98
2023-05-19T01:17:15.387Z,95.70
2023-05-19T01:18:15.372Z,95.60
2023-05-19T01:19:15.387Z,95.98
2023-05-19T01:20:15.324Z,96.65
2023-05-19T01:21:15.297Z,96.17
2023-05-19T01:22:15.281Z,96.36
2023-05-19T01:23:15.355Z,96.08
2023-05-19T01:24:15.222Z,97.31
2023-05-19T01:25:15.203Z,98.36
2023-05-19T01:26:15.177Z,98.18
2023-05-19T01:27:15.183Z,98.84
2023-05-19T01:28:15.132Z,98.98
2023-05-19T01:29:15.140Z,99.13
2023-05-19T01:30:15.080Z,98.74
2023-05-19T01:31:15.069Z,99.41
2023-05-19T01:32:15.067Z,99.69
2023-05-19T01:33:15.004Z,99.55
2023-05-19T01:34:14.985Z,99.55
2023-05-19T01:35:14.961Z,99.93
2023-05-19T01:36:14.936Z,99.55
2023-05-19T01:37:14.914Z,99.99
2023-05-19T01:38:14.892Z,99.99
2023-05-19T01:39:14.892Z,99.99
2023-05-19T01:40:14.856Z,99.99
2023-05-19T01:41:14.813Z,99.99
2023-05-19T01:42:14.802Z,99.99
2023-05-19T01:43:14.775Z,99.99
2023-05-19T01:44:14.750Z,99.99
2023-05-19T01:45:14.744Z,99.99
2023-05-19T01:46:14.764Z,99.99
2023-05-19T01:47:14.680Z,99.99
2023-05-19T01:48:14.694Z,99.99
2023-05-19T01:49:14.641Z,99.99
2023-05-19T01:50:14.615Z,99.99
2023-05-19T01:51:14.577Z,99.99
2023-05-19T01:52:14.554Z,99.99
2023-05-19T01:53:14.568Z,99.99
2023-05-19T01:54:14.506Z,99.99
2023-05-19T01:55:14.484Z,99.99
2023-05-19T01:56:14.458Z,99.99
2023-05-19T01:57:14.432Z,99.99
2023-05-19T01:58:14.416Z,99.99
2023-05-19T01:59:14.382Z,99.99
2023-05-19T02:00:14.366Z,99.99
2023-05-19T02:01:14.382Z,99.99
2023-05-19T02:02:14.314Z,99.99
2023-05-19T02:03:14.288Z,99.99
2023-05-19T02:04:14.351Z,99.99
2023-05-19T02:05:14.239Z,99.99
2023-05-19T02:06:14.241Z,99.99
2023-05-19T02:07:14.189Z,99.99
2023-05-19T02:08:14.191Z,99.99
2023-05-19T02:09:14.140Z,99.99
2023-05-19T02:10:14.120Z,99.99
2023-05-19T02:11:14.094Z,99.99
2023-05-19T02:12:14.070Z,99.99
2023-05-19T02:13:14.041Z,99.99
2023-05-19T02:14:14.031Z,99.99
2023-05-19T02:15:13.994Z,99.99
2023-05-19T02:16:14.007Z,99.99
2023-05-19T02:17:13.992Z,99.99
2023-05-19T02:18:13.923Z,99.99
2023-05-19T02:19:13.957Z,99.99
2023-05-19T02:20:13.867Z,99.99
2023-05-19T02:21:13.862Z,99.99
2023-05-19T02:22:13.824Z,99.99
2023-05-19T02:23:13.797Z,99.99
2023-05-19T02:24:13.781Z,99.99
2023-05-19T02:25:13.756Z,99.99
2023-05-19T02:26:13.730Z,99.99
2023-05-19T02:27:13.698Z,99.99
2023-05-19T02:28:13.701Z,99.99
2023-05-19T02:29:13.652Z,99.99
2023-05-19T02:30:13.635Z,99.99
2023-05-19T02:31:13.622Z,99.99
2023-05-19T02:32:13.679Z,99.99
2023-05-19T02:33:13.655Z,99.99
2023-05-19T02:34:13.532Z,99.99
2023-05-19T02:35:13.509Z,99.99
2023-05-19T02:36:13.488Z,99.99
2023-05-19T02:37:13.463Z,99.99
2023-05-19T02:38:13.446Z,99.99
2023-05-19T02:39:13.407Z,99.99
2023-05-19T02:40:13.396Z,99.99
2023-05-19T02:41:13.375Z,99.99
2023-05-19T02:42:13.356Z,99.99
2023-05-19T02:43:13.325Z,99.99
2023-05-19T02:44:13.283Z,99.99
2023-05-19T02:45:13.263Z,99.99
2023-05-19T02:46:13.253Z,99.99
2023-05-19T02:47:13.221Z,99.99
2023-05-19T02:48:13.235Z,99.99
2023-05-19T02:49:13.197Z,99.99
2023-05-19T02:50:13.144Z,99.99
2023-05-19T02:51:13.112Z,99.99
2023-05-19T02:52:13.088Z,99.99
2023-05-19T02:53:13.061Z,99.99
2023-05-19T02:54:13.050Z,99.99
2023-05-19T02:55:13.016Z,99.99
2023-05-19T02:56:12.999Z,99.99
2023-05-19T02:57:12.967Z,99.99
2023-05-19T02:58:12.956Z,99.99
2023-05-19T02:59:12.917Z,99.99
2023-05-19T03:00:12.895Z,99.99
2023-05-19T03:01:12.881Z,99.99
2023-05-19T03:02:12.904Z,99.99
2023-05-19T03:03:12.884Z,99.99
2023-05-19T03:04:12.800Z,99.99
2023-05-19T03:05:12.900Z,99.99
2023-05-19T03:06:12.758Z,99.99
2023-05-19T03:07:12.716Z,99.99
2023-05-19T03:08:12.704Z,99.99
2023-05-19T03:09:12.682Z,99.99
2023-05-19T03:10:12.647Z,99.99
2023-05-19T03:11:12.633Z,99.99
2023-05-19T03:12:12.599Z,99.99
2023-05-19T03:13:12.573Z,99.99
2023-05-19T03:14:12.552Z,99.99
2023-05-19T03:15:12.518Z,99.99
2023-05-19T03:16:12.595Z,99.99
2023-05-19T03:17:12.543Z,99.99
2023-05-19T03:18:12.491Z,99.99
2023-05-19T03:19:12.508Z,99.99
2023-05-19T03:20:12.408Z,99.99
2023-05-19T03:21:12.403Z,99.99
2023-05-19T03:22:12.357Z,99.99
2023-05-19T03:23:12.333Z,99.99
2023-05-19T03:24:12.308Z,99.99
2023-05-19T03:25:12.282Z,99.99
2023-05-19T03:26:12.268Z,99.99
2023-05-19T03:27:12.245Z,99.99
2023-05-19T03:28:12.212Z,99.99
2023-05-19T03:29:12.183Z,99.99
2023-05-19T03:30:12.166Z,99.99
2023-05-19T03:31:12.137Z,99.99
2023-05-19T03:32:12.152Z,99.99
2023-05-19T03:33:12.235Z,99.99
2023-05-19T03:34:12.068Z,99.99
2023-05-19T03:35:12.040Z,99.99
2023-05-19T03:36:12.013Z,99.99
2023-05-19T03:37:12.005Z,99.99
2023-05-19T03:38:11.969Z,99.99
2023-05-19T03:39:11.936Z,99.99
2023-05-19T03:40:11.934Z,99.99
2023-05-19T03:41:11.888Z,99.99
2023-05-19T03:42:11.866Z,99.99
2023-05-19T03:43:11.847Z,99.99
2023-05-19T03:44:11.823Z,99.99
2023-05-19T03:45:11.789Z,99.99
2023-05-19T03:46:11.823Z,99.99
2023-05-19T03:47:11.752Z,99.99
2023-05-19T03:48:11.769Z,99.99
2023-05-19T03:49:11.704Z,99.99
2023-05-19T03:50:11.675Z,99.99
2023-05-19T03:51:11.655Z,99.99
2023-05-19T03:52:11.626Z,99.99
2023-05-19T03:53:11.616Z,99.99
2023-05-19T03:54:11.572Z,99.99
2023-05-19T03:55:11.554Z,99.99
2023-05-19T03:56:11.519Z,99.99
2023-05-19T03:57:11.499Z,99.99
2023-05-19T03:58:11.476Z,99.99
2023-05-19T03:59:11.446Z,99.99
2023-05-19T04:00:11.422Z,99.99
2023-05-19T04:01:11.402Z,99.99
2023-05-19T04:02:11.429Z,99.99
2023-05-19T04:03:11.418Z,99.99
2023-05-19T04:04:11.404Z,99.99
2023-05-19T04:05:11.298Z,99.99
2023-05-19T04:06:11.272Z,99.99
2023-05-19T04:07:11.254Z,99.99
2023-05-19T04:08:11.244Z,99.99
2023-05-19T04:09:11.242Z,99.99
2023-05-19T04:10:11.178Z,99.99
2023-05-19T04:11:11.161Z,99.99
2023-05-19T04:12:11.126Z,99.99
2023-05-19T04:13:11.108Z,99.99
2023-05-19T04:14:11.097Z,99.99
2023-05-19T04:15:11.054Z,99.99
2023-05-19T04:16:11.086Z,99.99
2023-05-19T04:17:11.004Z,99.99
2023-05-19T04:18:11.019Z,99.99
2023-05-19T04:19:11.001Z,99.99
2023-05-19T04:20:10.923Z,99.99
2023-05-19T04:21:10.912Z,99.99
2023-05-19T04:22:10.897Z,99.99
2023-05-19T04:23:10.872Z,99.99
2023-05-19T04:24:10.840Z,99.99
2023-05-19T04:25:10.858Z,99.99
2023-05-19T04:26:10.808Z,99.99
2023-05-19T04:27:10.771Z,99.99
2023-05-19T04:28:10.737Z,99.99
2023-05-19T04:29:10.745Z,99.99
2023-05-19T04:30:10.708Z,99.99
2023-05-19T04:31:10.740Z,99.99
2023-05-19T04:32:10.644Z,99.99
2023-05-19T04:33:10.660Z,99.99
2023-05-19T04:34:10.591Z,99.99
2023-05-19T04:35:10.564Z,99.99
2023-05-19T04:36:10.638Z,99.99
2023-05-19T04:37:10.520Z,99.99
2023-05-19T04:38:10.490Z,99.99
2023-05-19T04:39:10.468Z,99.99
2023-05-19T04:40:10.441Z,99.99
2023-05-19T04:41:10.466Z,99.99
2023-05-19T04:42:10.397Z,99.99
2023-05-19T04:43:10.375Z,99.99
2023-05-19T04:44:10.339Z,99.99
2023-05-19T04:45:10.321Z,99.99
2023-05-19T04:46:13.092Z,99.99
2023-05-19T04:47:10.389Z,99.99
2023-05-19T04:48:10.252Z,99.99
2023-05-19T04:49:10.227Z,99.99
2023-05-19T04:50:10.194Z,99.99
2023-05-19T04:51:10.184Z,99.99
2023-05-19T04:52:10.162Z,99.99
2023-05-19T04:53:10.126Z,99.99
2023-05-19T04:54:10.219Z,99.99
2023-05-19T04:55:10.075Z,99.99
2023-05-19T04:56:10.049Z,99.99
2023-05-19T04:57:10.058Z,99.99
2023-05-19T04:58:09.999Z,99.99
2023-05-19T04:59:09.976Z,99.99
2023-05-19T05:00:09.943Z,99.99
2023-05-19T05:01:09.929Z,99.99
2023-05-19T05:02:09.950Z,99.99
2023-05-19T05:03:09.947Z,99.99
2023-05-19T05:04:09.901Z,99.99
2023-05-19T05:05:09.828Z,99.99
2023-05-19T05:06:09.792Z,99.99
2023-05-19T05:07:09.778Z,99.99
2023-05-19T05:08:09.763Z,99.99
2023-05-19T05:09:09.722Z,99.99
2023-05-19T05:10:09.693Z,99.99
2023-05-19T05:11:09.681Z,99.99
2023-05-19T05:12:09.648Z,99.99
2023-05-19T05:13:11.714Z,99.99
2023-05-19T05:14:09.600Z,99.99
2023-05-19T05:15:09.573Z,99.99
2023-05-19T05:16:09.591Z,99.99
2023-05-19T05:17:09.526Z,99.99
2023-05-19T05:18:09.528Z,99.99
2023-05-19T05:19:09.524Z,99.99
2023-05-19T05:20:09.450Z,99.99
2023-05-19T05:21:09.423Z,99.99
2023-05-19T05:22:09.400Z,99.99
2023-05-19T05:23:09.380Z,99.99
2023-05-19T05:24:09.358Z,99.79
2023-05-19T05:25:09.329Z,99.99
2023-05-19T05:26:09.305Z,99.98
2023-05-19T05:27:09.276Z,99.99
2023-05-19T05:28:09.251Z,99.84
2023-05-19T05:29:09.257Z,99.65
2023-05-19T05:30:09.202Z,99.99
2023-05-19T05:31:09.176Z,99.99
2023-05-19T05:32:09.195Z,99.99
2023-05-19T05:33:09.405Z,99.37
2023-05-19T05:34:09.118Z,99.08
2023-05-19T05:35:09.083Z,98.70
2023-05-19T05:36:09.060Z,99.08
2023-05-19T05:37:09.031Z,99.37
2023-05-19T05:38:09.010Z,98.22
2023-05-19T05:39:08.987Z,98.79
2023-05-19T05:40:08.962Z,98.99
2023-05-19T05:41:08.935Z,98.32
2023-05-19T05:42:08.915Z,98.22
2023-05-19T05:43:08.885Z,97.84
2023-05-19T05:44:08.864Z,98.13
2023-05-19T05:45:08.874Z,98.46
2023-05-19T05:46:08.937Z,98.51
2023-05-19T05:47:08.799Z,99.46
2023-05-19T05:48:08.839Z,98.27
2023-05-19T05:49:08.761Z,97.70
2023-05-19T05:50:08.721Z,97.27
2023-05-19T05:51:08.706Z,97.80
2023-05-19T05:52:08.670Z,97.61
2023-05-19T05:53:08.649Z,97.61
2023-05-19T05:54:08.637Z,97.22
2023-05-19T05:55:08.594Z,97.89
2023-05-19T05:56:08.570Z,96.65
2023-05-19T05:57:08.556Z,97.03
2023-05-19T05:58:08.523Z,96.46
2023-05-19T05:59:08.508Z,96.75
2023-05-19T06:00:08.491Z,96.56
2023-05-19T06:01:08.501Z,96.84
2023-05-19T06:02:08.457Z,96.75
2023-05-19T06:03:08.536Z,96.65
2023-05-19T06:04:08.389Z,96.56
2023-05-19T06:05:08.393Z,96.27
2023-05-19T06:06:08.356Z,97.03
2023-05-19T06:07:08.311Z,96.27
2023-05-19T06:08:08.295Z,96.36
2023-05-19T06:09:08.263Z,95.61
2023-05-19T06:10:08.251Z,95.17
2023-05-19T06:11:08.250Z,94.60
2023-05-19T06:12:08.223Z,94.89
2023-05-19T06:13:08.181Z,95.17
2023-05-19T06:14:08.150Z,95.27
2023-05-19T06:15:08.122Z,94.89
2023-05-19T06:16:08.152Z,94.41
2023-05-19T06:17:08.114Z,94.03
2023-05-19T06:18:08.107Z,94.41
2023-05-19T06:19:08.082Z,94.41
2023-05-19T06:20:07.997Z,94.22
2023-05-19T06:21:07.977Z,93.46
2023-05-19T06:22:07.950Z,93.17
2023-05-19T06:23:07.933Z,93.74
2023-05-19T06:24:07.912Z,93.27
2023-05-19T06:25:07.899Z,94.12
2023-05-19T06:26:07.853Z,94.12
2023-05-19T06:27:07.837Z,93.55
2023-05-19T06:28:07.812Z,93.55
2023-05-19T06:29:07.799Z,93.65
2023-05-19T06:30:07.755Z,93.88
2023-05-19T06:31:07.807Z,92.79
2023-05-19T06:32:07.707Z,93.31
2023-05-19T06:33:07.867Z,93.60
2023-05-19T06:34:07.671Z,93.70
2023-05-19T06:35:07.638Z,93.60
2023-05-19T06:36:07.616Z,94.17
2023-05-19T06:37:07.591Z,93.41
2023-05-19T06:38:07.564Z,93.31
2023-05-19T06:39:07.542Z,94.84
2023-05-19T06:40:07.520Z,94.27
2023-05-19T06:41:07.523Z,93.88
2023-05-19T06:42:07.469Z,93.98
2023-05-19T06:43:07.453Z,92.69
2023-05-19T06:44:07.423Z,92.50
2023-05-19T06:45:07.415Z,92.97
2023-05-19T06:46:07.369Z,92.97
2023-05-19T06:47:07.440Z,92.88
2023-05-19T06:48:07.412Z,92.97
2023-05-19T06:49:07.344Z,92.41
2023-05-19T06:50:07.278Z,92.88
2023-05-19T06:51:07.278Z,91.45
2023-05-19T06:52:07.240Z,92.21
2023-05-19T06:53:07.212Z,91.83
2023-05-19T06:54:07.178Z,91.07
2023-05-19T06:55:07.157Z,91.26
2023-05-19T06:56:07.136Z,90.59
2023-05-19T06:57:07.115Z,91.74
2023-05-19T06:58:07.625Z,91.45
2023-05-19T06:59:07.070Z,90.97
2023-05-19T07:00:07.043Z,91.64
2023-05-19T07:01:07.019Z,91.07
2023-05-19T07:02:07.109Z,90.83
2023-05-19T07:03:07.071Z,91.97
2023-05-19T07:04:07.090Z,92.26
2023-05-19T07:05:07.017Z,91.78
2023-05-19T07:06:08.261Z,91.69
2023-05-19T07:07:06.879Z,92.16
2023-05-19T07:08:06.857Z,91.97
2023-05-19T07:09:06.835Z,91.30
2023-05-19T07:10:06.807Z,91.02
2023-05-19T07:11:06.784Z,90.25
2023-05-19T07:12:06.758Z,89.39
2023-05-19T07:13:06.736Z,89.39
2023-05-19T07:14:06.712Z,90.06
2023-05-19T07:15:06.690Z,90.59
2023-05-19T07:16:06.696Z,89.78
2023-05-19T07:17:06.639Z,89.39
2023-05-19T07:18:06.642Z,89.39
2023-05-19T07:19:06.604Z,89.53
2023-05-19T07:20:06.565Z,89.34
2023-05-19T07:21:06.571Z,89.92
2023-05-19T07:22:06.519Z,89.15
2023-05-19T07:23:06.498Z,88.68
2023-05-19T07:24:06.485Z,88.01
2023-05-19T07:25:06.474Z,89.06
2023-05-19T07:26:06.430Z,90.01
2023-05-19T07:27:06.402Z,88.77
2023-05-19T07:28:06.387Z,88.58
2023-05-19T07:29:06.362Z,88.96
2023-05-19T07:30:06.338Z,87.72
2023-05-19T07:31:06.312Z,87.05
2023-05-19T07:32:06.316Z,86.96
2023-05-19T07:33:06.342Z,87.72
2023-05-19T07:34:06.266Z,87.76
2023-05-19T07:35:06.215Z,88.53
2023-05-19T07:36:06.201Z,87.00
2023-05-19T07:37:06.205Z,86.52
2023-05-19T07:38:06.149Z,86.33
2023-05-19T07:39:06.239Z,85.85
2023-05-19T07:40:06.121Z,86.61
2023-05-19T07:41:06.106Z,85.94
2023-05-19T07:42:06.061Z,86.33
2023-05-19T07:43:06.050Z,85.75
2023-05-19T07:44:06.009Z,85.75
2023-05-19T07:45:05.991Z,85.51
2023-05-19T07:46:06.183Z,84.55
2023-05-19T07:47:06.028Z,84.65
2023-05-19T07:48:06.042Z,83.50
2023-05-19T07:49:05.972Z,83.79
2023-05-19T07:50:05.948Z,83.60
2023-05-19T07:51:05.855Z,83.89
2023-05-19T07:52:05.824Z,83.79
2023-05-19T07:53:05.863Z,82.74
2023-05-19T07:54:05.782Z,84.36
2023-05-19T07:55:05.756Z,83.98
2023-05-19T07:56:05.806Z,84.22
2023-05-19T07:57:05.720Z,83.54
2023-05-19T07:58:05.692Z,84.12
2023-05-19T07:59:05.667Z,82.87
2023-05-19T08:00:05.637Z,82.87
2023-05-19T08:01:05.620Z,83.54
2023-05-19T08:02:05.614Z,83.73
2023-05-19T08:03:05.755Z,82.68
2023-05-19T08:04:05.645Z,82.30
2023-05-19T08:05:05.530Z,81.54
2023-05-19T08:06:05.499Z,81.73
2023-05-19T08:07:05.488Z,81.54
2023-05-19T08:08:05.462Z,81.63
2023-05-19T08:09:05.477Z,82.30
2023-05-19T08:10:05.424Z,80.29
2023-05-19T08:11:05.400Z,80.00
2023-05-19T08:12:05.366Z,79.05
2023-05-19T08:13:05.353Z,78.99
2023-05-19T08:14:05.327Z,79.95
2023-05-19T08:15:05.312Z,79.85
2023-05-19T08:16:05.367Z,78.99
2023-05-19T08:17:05.265Z,78.32
2023-05-19T08:18:05.497Z,78.22
2023-05-19T08:19:05.284Z,78.80
2023-05-19T08:20:05.192Z,79.37
2023-05-19T08:21:05.176Z,81.13
2023-05-19T08:22:05.151Z,77.78
2023-05-19T08:23:05.125Z,77.50
2023-05-19T08:24:05.110Z,77.31
2023-05-19T08:25:05.111Z,77.40
2023-05-19T08:26:05.074Z,77.40
2023-05-19T08:27:05.055Z,75.77
2023-05-19T08:28:05.018Z,75.39
2023-05-19T08:29:04.994Z,75.39
2023-05-19T08:30:04.989Z,75.01
2023-05-19T08:31:04.961Z,75.23
2023-05-19T08:32:04.929Z,74.18
2023-05-19T08:33:04.964Z,73.32
2023-05-19T08:34:04.888Z,72.32
2023-05-19T08:35:04.862Z,72.03
2023-05-19T08:36:04.848Z,71.08
2023-05-19T08:37:04.818Z,69.68
2023-05-19T08:38:04.827Z,69.64
2023-05-19T08:39:04.781Z,70.54
2023-05-19T08:40:04.785Z,72.55
2023-05-19T08:41:04.817Z,72.45
2023-05-19T08:42:04.717Z,72.36
2023-05-19T08:43:04.703Z,72.74
2023-05-19T08:44:04.716Z,72.07
2023-05-19T08:45:04.648Z,70.44
2023-05-19T08:46:04.623Z,70.70
2023-05-19T08:47:04.787Z,68.97
2023-05-19T08:48:04.667Z,68.87
2023-05-19T08:49:04.571Z,68.49
2023-05-19T08:50:04.538Z,68.87
2023-05-19T08:51:04.509Z,69.54
2023-05-19T08:52:04.498Z,68.49
2023-05-19T08:53:04.492Z,68.43
2023-05-19T08:54:04.454Z,69.87
2023-05-19T08:55:04.433Z,70.44
2023-05-19T08:56:04.406Z,69.77
2023-05-19T08:57:04.401Z,69.48
2023-05-19T08:58:04.431Z,69.68
2023-05-19T08:59:04.334Z,69.33
2023-05-19T09:00:04.322Z,69.71
2023-05-19T09:01:04.368Z,70.48
2023-05-19T09:02:04.275Z,68.37
2023-05-19T09:04:04.313Z,66.06
2023-05-19T09:05:04.368Z,66.16
2023-05-19T09:06:04.290Z,67.02
2023-05-19T09:07:04.171Z,67.79
2023-05-19T09:08:04.147Z,67.63
2023-05-19T09:09:04.121Z,67.16
2023-05-19T09:10:04.120Z,67.73
2023-05-19T09:11:04.078Z,66.67
2023-05-19T09:12:04.113Z,64.76
2023-05-19T09:13:04.079Z,66.96
2023-05-19T09:14:04.018Z,66.16
2023-05-19T09:15:03.990Z,65.20
2023-05-19T09:16:03.995Z,64.82
2023-05-19T09:17:04.196Z,64.25
2023-05-19T09:18:04.003Z,66.35
2023-05-19T09:19:03.950Z,66.06
2023-05-19T09:20:03.885Z,66.26
2023-05-19T09:21:03.871Z,66.83
2023-05-19T09:22:03.897Z,67.63
2023-05-19T09:23:03.824Z,68.50
2023-05-19T09:24:03.807Z,67.92
2023-05-19T09:25:03.781Z,66.19
2023-05-19T09:26:03.776Z,63.89
2023-05-19T09:27:03.746Z,65.14
2023-05-19T09:28:03.722Z,65.62
2023-05-19T09:29:03.721Z,65.65
2023-05-19T09:30:03.674Z,64.02
2023-05-19T09:31:03.665Z,62.55
2023-05-19T09:32:03.697Z,62.84
2023-05-19T09:33:03.608Z,63.70
2023-05-19T09:34:03.602Z,63.42
2023-05-19T09:35:03.575Z,63.22
2023-05-19T09:36:03.553Z,64.76
2023-05-19T09:37:03.532Z,65.43
2023-05-19T09:38:03.508Z,65.43
2023-05-19T09:39:03.487Z,64.69
2023-05-19T09:40:03.467Z,65.56
2023-05-19T09:41:03.445Z,64.76
2023-05-19T09:42:03.430Z,63.89
2023-05-19T09:43:03.402Z,62.84
2023-05-19T09:44:03.381Z,63.48
2023-05-19T09:45:03.428Z,64.66
2023-05-19T09:46:03.382Z,64.56
2023-05-19T09:47:03.326Z,64.37
2023-05-19T09:48:03.383Z,64.56
2023-05-19T09:49:03.273Z,63.16
2023-05-19T09:50:03.265Z,65.65
2023-05-19T09:51:03.239Z,65.14
2023-05-19T09:52:03.224Z,63.92
2023-05-19T09:53:03.197Z,64.31
2023-05-19T09:54:03.174Z,64.22
2023-05-19T09:55:03.157Z,63.54
2023-05-19T09:56:03.123Z,63.16
2023-05-19T09:57:03.134Z,64.69
2023-05-19T09:58:03.091Z,64.92
2023-05-19T09:59:03.062Z,63.67
2023-05-19T10:00:03.047Z,62.23
2023-05-19T10:01:03.222Z,62.61
2023-05-19T10:02:03.296Z,62.52
2023-05-19T10:03:03.056Z,61.84
2023-05-19T10:04:03.884Z,62.13
2023-05-19T10:05:02.997Z,61.94
2023-05-19T10:06:02.930Z,63.09
2023-05-19T10:07:02.900Z,61.94
2023-05-19T10:08:02.884Z,61.27
2023-05-19T10:09:02.854Z,60.66
2023-05-19T10:10:02.838Z,60.18
2023-05-19T10:11:02.825Z,61.62
2023-05-19T10:12:02.797Z,61.33
2023-05-19T10:13:02.783Z,61.46
2023-05-19T10:14:02.764Z,62.13
2023-05-19T10:15:02.747Z,63.19
2023-05-19T10:16:03.046Z,63.79
2023-05-19T10:17:02.841Z,62.74
2023-05-19T10:18:02.726Z,62.64
2023-05-19T10:19:02.755Z,62.93
2023-05-19T10:20:02.649Z,61.30
2023-05-19T10:21:02.622Z,60.24
2023-05-19T10:22:02.597Z,60.43
2023-05-19T10:23:02.578Z,61.49
2023-05-19T10:24:02.556Z,59.47
2023-05-19T10:25:02.551Z,59.38
2023-05-19T10:26:02.521Z,58.42
2023-05-19T10:27:02.538Z,59.41
2023-05-19T10:28:02.475Z,58.89
2023-05-19T10:29:02.453Z,59.60
2023-05-19T10:30:02.432Z,59.60
2023-05-19T10:31:02.423Z,59.02
2023-05-19T10:32:02.448Z,59.50
2023-05-19T10:33:02.432Z,58.54
2023-05-19T10:34:02.355Z,59.57
2023-05-19T10:35:02.329Z,58.80
2023-05-19T10:36:02.335Z,58.96
2023-05-19T10:37:02.289Z,58.96
2023-05-19T10:38:02.272Z,59.73
2023-05-19T10:39:02.245Z,59.92
2023-05-19T10:40:02.258Z,60.40
2023-05-19T10:41:02.207Z,60.40
2023-05-19T10:42:02.209Z,61.08
2023-05-19T10:43:02.161Z,60.60
2023-05-19T10:44:02.148Z,60.31
2023-05-19T10:45:02.125Z,59.44
2023-05-19T10:46:02.106Z,59.44
2023-05-19T10:47:02.176Z,59.83
2023-05-19T10:48:02.102Z,59.92
2023-05-19T10:49:02.068Z,60.43
2023-05-19T10:50:02.032Z,60.40
2023-05-19T10:51:02.006Z,59.66
2023-05-19T10:52:02.007Z,59.28
2023-05-19T10:53:01.970Z,60.43
2023-05-19T10:54:01.945Z,60.82
2023-05-19T10:55:01.931Z,59.28
2023-05-19T10:56:01.910Z,58.13
2023-05-19T10:57:01.881Z,57.52
2023-05-19T10:58:01.878Z,57.90
2023-05-19T10:59:01.846Z,59.83
2023-05-19T11:00:01.842Z,60.11
2023-05-19T11:01:01.824Z,59.73
2023-05-19T11:02:01.828Z,60.21
2023-05-19T11:03:01.805Z,59.25
2023-05-19T11:04:01.798Z,59.44
2023-05-19T11:05:01.825Z,59.34
2023-05-19T11:06:01.701Z,58.96
2023-05-19T11:07:01.689Z,58.39
2023-05-19T11:08:01.674Z,59.47
2023-05-19T11:09:01.644Z,59.86
2023-05-19T11:10:01.658Z,59.38
2023-05-19T11:11:01.607Z,58.80
2023-05-19T11:12:01.592Z,58.39
2023-05-19T11:13:01.571Z,58.48
2023-05-19T11:14:01.551Z,59.73
2023-05-19T11:15:01.531Z,59.86
2023-05-19T11:16:01.503Z,59.28
2023-05-19T11:17:01.625Z,58.51
2023-05-19T11:18:01.511Z,58.32
2023-05-19T11:19:01.507Z,58.51
2023-05-19T11:20:01.434Z,58.42
2023-05-19T11:21:01.490Z,58.51
2023-05-19T11:22:01.378Z,59.47
2023-05-19T11:23:01.386Z,59.02
2023-05-19T11:24:01.381Z,58.15
2023-05-19T11:25:01.323Z,58.25
2023-05-19T11:26:01.315Z,57.29
2023-05-19T11:27:01.292Z,56.55
2023-05-19T11:28:01.258Z,56.81
2023-05-19T11:29:01.233Z,57.39
2023-05-19T11:30:01.252Z,57.10
2023-05-19T11:31:01.204Z,58.06
2023-05-19T11:32:01.199Z,58.35
2023-05-19T11:33:01.224Z,58.06
2023-05-19T11:34:01.136Z,59.79
2023-05-19T11:35:01.113Z,58.83
2023-05-19T11:36:01.095Z,58.92
2023-05-19T11:37:01.116Z,59.41
2023-05-19T11:38:01.054Z,59.02
2023-05-19T11:39:01.036Z,57.42
2023-05-19T11:40:01.020Z,57.13
2023-05-19T11:41:01.021Z,57.29
2023-05-19T11:42:00.976Z,56.81
2023-05-19T11:43:00.956Z,57.29
2023-05-19T11:44:00.944Z,58.35
2023-05-19T11:45:00.918Z,58.92
2023-05-19T11:46:00.950Z,59.12
2023-05-19T11:47:00.880Z,58.54
2023-05-19T11:48:02.415Z,58.06
2023-05-19T11:49:00.879Z,58.22
2023-05-19T11:50:00.818Z,59.66
2023-05-19T11:51:00.798Z,59.47
2023-05-19T11:52:00.777Z,60.63
2023-05-19T11:53:00.796Z,60.11
2023-05-19T11:54:00.733Z,59.54
2023-05-19T11:55:00.713Z,59.44
2023-05-19T11:56:00.693Z,59.76
2023-05-19T11:57:00.680Z,60.34
2023-05-19T11:58:04.551Z,59.66
2023-05-19T11:59:00.633Z,59.86
2023-05-19T12:00:00.614Z,58.64
2023-05-19T12:01:00.591Z,58.25
2023-05-19T12:02:00.570Z,58.03
2023-05-19T12:03:00.601Z,59.47
2023-05-19T12:04:00.566Z,59.66
2023-05-19T12:05:00.553Z,60.14
2023-05-19T12:06:00.542Z,60.63
2023-05-19T12:07:00.476Z,60.21
2023-05-19T12:08:00.454Z,60.40
2023-05-19T12:09:00.450Z,61.36
2023-05-19T12:10:00.408Z,61.36
2023-05-19T12:11:00.383Z,61.46
2023-05-19T12:12:00.372Z,60.40
2023-05-19T12:13:00.344Z,59.86
2023-05-19T12:14:00.325Z,61.40
2023-05-19T12:15:00.303Z,59.57
2023-05-19T12:16:00.346Z,59.89
2023-05-19T12:17:00.266Z,60.08
2023-05-19T12:18:00.367Z,60.08
2023-05-19T12:19:00.401Z,59.79
2023-05-19T12:20:00.198Z,59.60
2023-05-19T12:21:00.184Z,59.31
2023-05-19T12:22:01.259Z,60.34
2023-05-19T12:23:00.149Z,60.85
2023-05-19T12:24:00.154Z,61.23
2023-05-19T12:25:00.150Z,62.10
2023-05-19T12:26:00.138Z,61.61
2023-05-19T12:27:00.060Z,60.56
2023-05-19T12:28:00.040Z,59.60
2023-05-19T12:29:00.018Z,58.54
2023-05-19T12:29:59.999Z,58.64
2023-05-19T12:30:59.974Z,60.37
2023-05-19T12:31:59.993Z,59.41
2023-05-19T12:33:00.023Z,60.01
2023-05-19T12:33:59.921Z,58.37
2023-05-19T12:34:59.896Z,56.81
2023-05-19T12:35:59.872Z,58.45
2023-05-19T12:36:59.851Z,59.92
2023-05-19T12:37:59.847Z,59.63
2023-05-19T12:38:59.819Z,58.86
2023-05-19T12:39:59.793Z,59.05
2023-05-19T12:40:59.798Z,59.15
2023-05-19T12:41:59.755Z,58.57
2023-05-19T12:42:59.759Z,58.37
2023-05-19T12:43:59.711Z,57.68
2023-05-19T12:45:00.755Z,58.35
2023-05-19T12:45:59.710Z,58.73
2023-05-19T12:46:59.681Z,59.38
2023-05-19T12:47:59.718Z,60.08
2023-05-19T12:48:59.613Z,59.50
2023-05-19T12:49:59.599Z,59.89
2023-05-19T12:50:59.574Z,60.17
2023-05-19T12:52:00.549Z,59.22
2023-05-19T12:52:59.535Z,59.41